Time;durP1;ratioP1;P1;durP2;ratioP2;P2;SDS_P1;SDS_P2;PMS_P1;PMS_P2;Temp;Humidity;BMP_temperature;BMP_pressure;BME280_temperature;BME280_humidity;BME280_pressure;Samples;Min_cycle;Max_cycle;Signal;HPM_P1;HPM_P2
2022/01/13 00:02:31;;;;;;;26.97;24.07;;;-1.60;99.90;;;-0.96;90.36;100173.94;5184110;28;20224;-66
2022/01/13 00:05:06;;;;;;;28.80;23.63;;;-1.60;99.90;;;-0.86;90.70;100162.66;5177691;28;20231;-66
2022/01/13 00:07:39;;;;;;;26.63;23.13;;;-1.60;99.90;;;-0.91;91.43;100162.94;5185918;28;20488;-66
2022/01/13 00:10:12;;;;;;;27.53;24.60;;;-1.50;99.90;;;-0.93;91.50;100159.31;5177586;28;20225;-66
2022/01/13 00:12:45;;;;;;;26.40;23.70;;;-1.60;99.90;;;-0.92;90.23;100163.66;5174502;28;20227;-64
2022/01/13 00:15:27;;;;;;;30.13;24.80;;;-1.60;99.90;;;-0.89;89.98;100162.22;5178469;28;20487;-66
2022/01/13 00:18:03;;;;;;;30.63;24.63;;;-1.60;99.90;;;-0.78;90.46;100162.13;5171776;28;20352;-66
2022/01/13 00:21:12;;;;;;;30.57;25.47;;;-1.50;99.90;;;-0.81;89.92;100172.63;5178915;28;20226;-66
2022/01/13 00:23:47;;;;;;;27.30;24.37;;;-1.50;99.90;;;-0.81;90.29;100164.19;5172208;28;20257;-66
2022/01/13 00:26:23;;;;;;;28.37;23.57;;;-1.50;99.90;;;-0.79;90.74;100168.75;5185690;28;20574;-66
2022/01/13 00:28:59;;;;;;;29.07;24.63;;;-1.50;99.90;;;-0.78;89.48;100173.06;5174211;28;20324;-64
2022/01/13 00:31:38;;;;;;;27.17;24.33;;;-1.50;99.90;;;-0.85;90.25;100190.50;5181664;28;20220;-66
2022/01/13 00:34:11;;;;;;;29.33;24.60;;;-1.50;99.90;;;-0.82;90.44;100177.47;5182274;28;20230;-65
2022/01/13 00:36:44;;;;;;;31.10;26.67;;;-1.50;99.90;;;-0.78;90.59;100185.59;5181813;28;20230;-67
2022/01/13 00:39:17;;;;;;;30.60;26.60;;;-1.40;99.90;;;-0.76;89.88;100191.75;5185573;28;20254;-66
2022/01/13 00:41:50;;;;;;;31.87;27.30;;;-1.40;99.90;;;-0.69;90.69;100188.47;5182627;28;20221;-66
2022/01/13 00:44:23;;;;;;;30.47;26.57;;;-1.40;99.90;;;-0.66;91.17;100198.94;5177103;28;20220;-66
2022/01/13 00:46:59;;;;;;;31.53;28.13;;;-1.40;99.90;;;-0.65;90.86;100198.25;5180811;28;20227;-63
2022/01/13 00:49:33;;;;;;;30.47;25.83;;;-1.30;99.90;;;-0.70;90.62;100196.72;5184816;28;20233;-66
2022/01/13 00:52:06;;;;;;;29.27;26.07;;;-1.30;99.90;;;-0.73;91.08;100203.81;5176391;28;20623;-66
2022/01/13 00:54:41;;;;;;;32.67;26.13;;;-1.40;99.90;;;-0.69;90.62;100198.53;5184570;28;20220;-66
2022/01/13 00:57:14;;;;;;;29.23;25.10;;;-1.40;99.90;;;-0.61;90.24;100199.59;5184581;28;20231;-66
2022/01/13 00:59:47;;;;;;;29.37;24.43;;;-1.40;99.90;;;-0.61;90.84;100200.50;5184421;28;20232;-64
2022/01/13 01:02:22;;;;;;;31.67;26.07;;;-1.30;99.90;;;-0.62;90.64;100196.19;5169338;28;20627;-66
2022/01/13 01:04:55;;;;;;;27.97;24.43;;;-1.30;99.90;;;-0.69;90.62;100198.53;5179572;28;20591;-66
2022/01/13 01:07:28;;;;;;;31.80;26.50;;;-1.30;99.90;;;-0.71;90.70;100208.38;5180357;28;20223;-66
2022/01/13 01:10:02;;;;;;;32.37;26.57;;;-1.40;99.90;;;-0.67;89.89;100202.16;5173640;28;20233;-66
2022/01/13 01:12:38;;;;;;;28.83;25.70;;;-1.40;99.90;;;-0.64;90.07;100207.59;5183208;28;20224;-66
2022/01/13 01:15:12;;;;;;;34.53;28.03;;;-1.40;99.90;;;-0.68;90.17;100216.31;5181832;28;20234;-66
2022/01/13 01:17:51;;;;;;;32.57;27.73;;;-1.40;99.90;;;-0.69;89.16;100219.53;5176154;28;20222;-66
2022/01/13 01:20:29;;;;;;;32.90;27.73;;;-1.40;99.90;;;-0.68;88.61;100220.44;5184750;28;20256;-65
2022/01/13 01:23:11;;;;;;;33.47;28.83;;;-1.40;99.90;;;-0.72;90.52;100220.69;5171273;28;20702;-64
2022/01/13 01:25:57;;;;;;;33.23;29.00;;;-1.40;99.90;;;-0.66;89.95;100224.03;5183379;28;20233;-64
2022/01/13 01:28:40;;;;;;;33.73;28.37;;;-1.40;99.90;;;-0.71;90.66;100220.94;5175992;28;20702;-66
2022/01/13 01:31:14;;;;;;;34.57;28.40;;;-1.40;99.90;;;-0.65;89.36;100235.03;5170874;28;20699;-66
2022/01/13 01:34:01;;;;;;;30.97;27.27;;;-1.40;99.90;;;-0.63;89.77;100233.63;5175239;28;20251;-64
2022/01/13 01:36:34;;;;;;;33.23;27.03;;;-1.30;99.90;;;-0.61;90.03;100238.16;5182394;28;20433;-65
2022/01/13 01:39:08;;;;;;;36.60;28.63;;;-1.30;99.90;;;-0.62;88.84;100236.34;5184408;28;20227;-66
2022/01/13 01:41:44;;;;;;;35.07;28.50;;;-1.30;99.90;;;-0.61;88.72;100233.13;5180490;28;20240;-66
2022/01/13 01:44:26;;;;;;;32.30;27.90;;;-1.30;99.90;;;-0.50;89.42;100229.59;5184371;28;20234;-66
2022/01/13 01:47:00;;;;;;;30.67;26.50;;;-1.20;99.90;;;-0.34;89.45;100233.53;5175869;28;20224;-66
2022/01/13 01:49:39;;;;;;;39.37;31.07;;;-1.10;99.90;;;-0.43;89.39;100228.84;5183595;28;20627;-66
2022/01/13 01:52:16;;;;;;;39.00;30.63;;;-1.10;99.90;;;-0.51;89.60;100226.19;5175442;28;20853;-66
2022/01/13 01:54:50;;;;;;;42.20;33.17;;;-1.10;99.90;;;-0.44;90.06;100232.06;5178094;28;20234;-66
2022/01/13 01:57:25;;;;;;;35.37;28.57;;;-1.10;99.90;;;-0.39;88.11;100216.91;5181614;28;20226;-66
2022/01/13 01:59:59;;;;;;;34.33;28.70;;;-1.30;99.90;;;-0.43;88.87;100209.63;5179612;28;20222;-66
2022/01/13 02:02:32;;;;;;;34.13;28.00;;;-1.20;99.90;;;-0.38;88.53;100216.19;5173972;28;20216;-66
2022/01/13 02:05:08;;;;;;;32.80;27.97;;;-1.10;99.90;;;-0.36;88.39;100223.97;5178611;28;20232;-65
2022/01/13 02:07:41;;;;;;;32.40;27.90;;;-1.10;99.90;;;-0.35;88.40;100213.22;5182373;28;20223;-65
2022/01/13 02:10:16;;;;;;;33.67;27.90;;;-1.00;99.90;;;-0.26;88.37;100214.47;5172027;28;20235;-66
2022/01/13 02:12:53;;;;;;;34.67;28.80;;;-1.00;99.90;;;-0.21;89.07;100212.59;5177801;28;20685;-64
2022/01/13 02:15:32;;;;;;;33.57;27.97;;;-0.90;99.90;;;-0.22;88.80;100210.78;5168114;28;20220;-65
2022/01/13 02:18:07;;;;;;;33.37;27.77;;;-0.90;99.90;;;-0.21;88.29;100207.56;5178743;28;20272;-65
2022/01/13 02:20:53;;;;;;;34.73;28.37;;;-0.90;99.90;;;-0.25;88.97;100201.22;5172573;28;20309;-65
2022/01/13 02:23:32;;;;;;;36.77;30.10;;;-1.00;99.90;;;-0.22;86.85;100199.13;5181190;28;20217;-66
2022/01/13 02:26:07;;;;;;;34.47;28.33;;;-1.00;99.90;;;-0.26;87.61;100189.34;5168076;28;20308;-65
2022/01/13 02:28:41;;;;;;;34.80;28.70;;;-1.00;99.90;;;-0.27;88.20;100192.56;5182110;28;20237;-65
2022/01/13 02:31:14;;;;;;;30.50;27.20;;;-1.00;99.90;;;-0.29;87.80;100186.41;5179247;28;20220;-65
2022/01/13 02:33:47;;;;;;;35.90;28.77;;;-1.00;99.90;;;-0.30;87.53;100179.59;5175985;28;20241;-64
2022/01/13 02:36:23;;;;;;;35.40;29.93;;;-1.10;99.90;;;-0.32;87.86;100173.44;5180936;28;20225;-65
2022/01/13 02:38:57;;;;;;;34.33;28.33;;;-1.00;99.90;;;-0.31;87.81;100175.25;5173038;28;20226;-66
2022/01/13 02:41:30;;;;;;;37.87;29.10;;;-1.00;99.90;;;-0.26;87.35;100155.09;5175661;28;20216;-62
2022/01/13 02:44:11;;;;;;;34.07;27.87;;;-0.90;99.90;;;-0.26;87.44;100159.19;5167917;28;20696;-65
2022/01/13 02:47:08;;;;;;;35.10;28.60;;;-0.90;99.90;;;-0.25;87.54;100171.06;5176135;28;20227;-66
2022/01/13 02:50:01;;;;;;;36.60;29.53;;;-0.90;99.90;;;-0.19;87.08;100161.84;5172036;28;20230;-65
2022/01/13 02:52:36;;;;;;;33.40;27.27;;;-0.80;99.90;;;-0.14;87.26;100160.88;5181157;28;20229;-64
2022/01/13 02:55:11;;;;;;;33.83;26.53;;;-0.80;99.90;;;-0.11;87.36;100163.78;5177931;28;20221;-65
2022/01/13 02:57:44;;;;;;;32.23;28.27;;;-0.80;99.90;;;0.01;87.17;100168.66;5170214;28;20597;-64
2022/01/13 03:00:18;;;;;;;31.90;27.40;;;-0.70;99.90;;;-0.02;87.07;100162.50;5173559;28;20303;-65
2022/01/13 03:02:51;;;;;;;31.97;26.77;;;-0.70;99.90;;;-0.04;87.51;100163.91;5175259;28;20320;-65
2022/01/13 03:05:24;;;;;;;30.37;26.97;;;-0.70;99.90;;;0.03;87.01;100160.63;5177170;28;20372;-65
2022/01/13 03:07:59;;;;;;;32.13;26.83;;;-0.60;99.90;;;0.08;87.09;100159.63;5179389;28;20227;-64
2022/01/13 03:10:32;;;;;;;34.33;28.40;;;-0.60;99.90;;;0.12;87.27;100160.97;5181482;28;20225;-65
2022/01/13 03:13:06;;;;;;;33.77;29.00;;;-0.60;99.90;;;0.15;87.22;100167.31;5182268;28;20709;-65
2022/01/13 03:15:39;;;;;;;33.43;29.37;;;-0.60;99.90;;;0.17;86.82;100159.94;5179658;28;20604;-65
2022/01/13 03:18:12;;;;;;;32.57;26.77;;;-0.60;99.90;;;0.17;87.12;100165.91;5185080;28;20229;-65
2022/01/13 03:20:45;;;;;;;33.03;27.80;;;-0.60;99.90;;;0.21;86.80;100162.19;5185980;28;20228;-64
2022/01/13 03:23:20;;;;;;;31.57;26.63;;;-0.50;99.90;;;0.20;87.36;100163.81;5181133;28;20225;-64
2022/01/13 03:25:53;;;;;;;33.13;27.13;;;-0.50;99.90;;;0.17;86.81;100159.94;5182809;28;20242;-64
2022/01/13 03:28:31;;;;;;;32.83;26.93;;;-0.60;99.90;;;0.15;87.30;100161.38;5175600;28;20232;-65
2022/01/13 03:31:04;;;;;;;31.70;26.87;;;-0.60;99.90;;;0.20;87.02;100165.38;5174193;28;20220;-64
2022/01/13 03:33:37;;;;;;;33.17;27.93;;;-0.50;99.90;;;0.25;87.15;100169.44;5176476;28;20248;-64
2022/01/13 03:36:10;;;;;;;31.17;26.77;;;-0.50;99.90;;;0.24;86.90;100172.66;5181553;28;20699;-65
2022/01/13 03:38:45;;;;;;;32.67;26.63;;;-0.50;99.90;;;0.29;86.58;100163.22;5187758;28;20709;-65
2022/01/13 03:41:20;;;;;;;34.70;28.63;;;-0.50;99.90;;;0.40;86.64;100150.44;5188658;28;20711;-66
2022/01/13 03:43:55;;;;;;;32.17;27.17;;;-0.60;99.90;;;0.35;86.60;100152.38;5184595;28;20225;-64
2022/01/13 03:46:28;;;;;;;32.93;27.03;;;-0.60;99.90;;;0.33;86.59;100158.78;5183055;28;21370;-65
2022/01/13 03:49:01;;;;;;;32.67;28.33;;;-0.50;99.90;;;0.42;86.58;100149.06;5180270;28;20272;-65
2022/01/13 03:52:31;;;;;;;31.97;26.97;;;-0.60;99.90;;;0.35;86.92;100152.38;5185830;28;20600;-65
2022/01/13 03:56:37;;;;;;;31.10;25.40;;;-0.50;99.90;;;0.38;87.07;100147.75;5152829;28;20228;-64
2022/01/13 03:59:47;;;;;;;29.53;25.47;;;-0.50;99.90;;;0.35;87.10;100137.28;5181194;28;20699;-65
2022/01/13 04:02:21;;;;;;;31.47;27.03;;;-0.50;99.90;;;0.27;87.34;100149.53;5179918;28;20635;-64
2022/01/13 04:04:54;;;;;;;31.13;26.53;;;-0.50;99.90;;;0.19;87.97;100139.34;5182761;28;20219;-65
2022/01/13 04:07:27;;;;;;;32.13;25.97;;;-0.60;99.90;;;0.07;87.75;100137.72;5173073;28;20312;-65
2022/01/13 04:10:58;;;;;;;31.07;26.93;;;-0.60;99.90;;;0.15;88.09;100136.22;5183835;28;20331;-64
2022/01/13 04:13:47;;;;;;;31.20;26.80;;;-0.50;99.90;;;0.19;88.97;100131.81;5183232;28;20230;-65
2022/01/13 04:16:24;;;;;;;31.40;27.70;;;-0.50;99.90;;;0.25;88.41;100139.25;5182342;28;20285;-65
2022/01/13 04:19:04;;;;;;;29.73;26.23;;;-0.50;99.90;;;0.29;88.50;100131.44;5187338;28;20218;-65
2022/01/13 04:21:39;;;;;;;34.30;27.10;;;-0.40;99.90;;;0.33;88.66;100132.75;5186957;28;20226;-65
2022/01/13 04:24:14;;;;;;;30.47;26.03;;;-0.40;99.90;;;0.36;88.61;100139.06;5178592;28;20223;-65
2022/01/13 04:26:47;;;;;;;33.50;28.70;;;-0.40;99.90;;;0.38;88.47;100142.72;5179491;28;20235;-65
2022/01/13 04:29:30;;;;;;;33.20;28.03;;;-0.40;99.90;;;0.40;88.50;100145.41;5171527;28;20229;-65
2022/01/13 04:32:05;;;;;;;30.17;25.53;;;-0.40;99.90;;;0.41;88.12;100143.13;5180179;28;20237;-65
2022/01/13 04:34:38;;;;;;;29.03;25.67;;;-0.40;99.90;;;0.38;88.95;100152.78;5184811;28;20213;-66
2022/01/13 04:37:11;;;;;;;29.50;26.43;;;-0.40;99.90;;;0.37;89.10;100148.47;5172832;28;20226;-66
2022/01/13 04:39:44;;;;;;;32.73;27.10;;;-0.40;99.90;;;0.40;88.80;100155.47;5183151;28;20233;-66
2022/01/13 04:42:17;;;;;;;30.53;26.63;;;-0.40;99.90;;;0.39;89.44;100157.09;5186492;28;20219;-63
2022/01/13 04:44:52;;;;;;;29.67;26.37;;;-0.40;99.90;;;0.42;88.76;100161.63;5180683;28;20232;-63
2022/01/13 04:47:25;;;;;;;31.83;25.83;;;-0.40;99.90;;;0.41;88.41;100158.22;5176334;28;20218;-63
2022/01/13 04:49:58;;;;;;;31.47;27.37;;;-0.40;99.90;;;0.39;88.85;100166.25;5180175;28;20225;-64
2022/01/13 04:52:31;;;;;;;30.43;25.53;;;-0.40;99.90;;;0.41;88.90;100167.38;5183991;28;20234;-63
2022/01/13 04:55:10;;;;;;;32.33;28.33;;;-0.40;99.90;;;0.37;88.83;100160.09;5183297;28;20663;-64
2022/01/13 04:57:43;;;;;;;32.93;28.30;;;-0.40;99.90;;;0.38;89.34;100162.84;5185968;28;20225;-64
2022/01/13 05:00:17;;;;;;;27.10;24.10;;;-0.40;99.90;;;0.38;89.38;100162.84;5184940;28;20221;-64
2022/01/13 05:02:50;;;;;;;28.90;24.50;;;-0.40;99.90;;;0.37;89.00;100163.56;5183796;28;20210;-64
2022/01/13 05:05:24;;;;;;;29.40;24.70;;;-0.40;99.90;;;0.41;88.91;100169.88;5183614;28;20235;-63
2022/01/13 05:07:57;;;;;;;28.10;25.10;;;-0.40;99.90;;;0.42;89.43;100167.56;5179411;28;20215;-65
2022/01/13 05:10:30;;;;;;;28.80;25.63;;;-0.40;99.90;;;0.50;89.12;100167.69;5185204;28;20228;-64
2022/01/13 05:13:08;;;;;;;31.70;26.93;;;-0.40;99.90;;;0.56;88.75;100171.00;5185366;28;20241;-64
2022/01/13 05:15:44;;;;;;;32.23;26.37;;;-0.30;99.90;;;0.50;89.11;100182.78;5176735;28;20226;-64
2022/01/13 05:18:24;;;;;;;31.83;26.43;;;-0.30;99.90;;;0.51;89.28;100174.53;5178142;28;20236;-64
2022/01/13 05:20:58;;;;;;;28.70;24.97;;;-0.30;99.90;;;0.46;89.41;100178.97;5180125;28;20218;-64
2022/01/13 05:23:32;;;;;;;28.77;25.73;;;-0.40;99.90;;;0.45;89.43;100175.50;5176892;28;20602;-64
2022/01/13 05:26:05;;;;;;;30.17;26.77;;;-0.30;99.90;;;0.45;89.71;100172.09;5185049;28;20686;-65
2022/01/13 05:28:40;;;;;;;29.97;26.60;;;-0.30;99.90;;;0.43;89.72;100169.41;5175228;28;20226;-65
2022/01/13 05:31:14;;;;;;;30.17;26.87;;;-0.30;99.90;;;0.45;89.61;100175.50;5183341;28;20226;-63
2022/01/13 05:33:48;;;;;;;32.67;27.43;;;-0.30;99.90;;;0.44;89.37;100175.31;5182573;28;20312;-64
2022/01/13 05:36:21;;;;;;;35.00;26.50;;;-0.40;99.90;;;0.44;89.03;100176.22;5177238;28;20224;-65
2022/01/13 05:38:54;;;;;;;28.07;25.07;;;-0.40;99.90;;;0.46;89.33;100176.44;5183354;28;20223;-65
2022/01/13 05:41:27;;;;;;;29.17;25.57;;;-0.40;99.90;;;0.45;88.96;100187.19;5179243;28;20224;-65
2022/01/13 05:44:01;;;;;;;29.53;26.30;;;-0.40;99.90;;;0.45;88.85;100177.13;5180822;28;20214;-65
2022/01/13 05:46:35;;;;;;;32.57;27.77;;;-0.40;99.90;;;0.40;88.70;100179.03;5184507;28;20228;-64
2022/01/13 05:49:08;;;;;;;33.57;28.33;;;-0.40;99.90;;;0.42;88.96;100184.25;5182275;28;20317;-65
2022/01/13 05:51:41;;;;;;;32.43;28.77;;;-0.40;99.90;;;0.45;88.75;100180.53;5169422;28;20233;-66
2022/01/13 05:54:14;;;;;;;34.17;28.30;;;-0.30;99.90;;;0.41;89.06;100187.50;5182168;28;20225;-65
2022/01/13 05:56:47;;;;;;;31.40;27.90;;;-0.40;99.90;;;0.48;88.84;100184.19;5177217;28;20223;-65
2022/01/13 05:59:21;;;;;;;33.73;28.53;;;-0.30;99.90;;;0.43;88.63;100181.97;5178826;28;20226;-65
2022/01/13 06:01:56;;;;;;;37.90;31.07;;;-0.40;99.90;;;0.42;88.81;100185.16;5185653;28;20317;-65
2022/01/13 06:04:29;;;;;;;40.57;34.70;;;-0.30;99.90;;;0.43;88.69;100181.97;5175981;28;20280;-65
2022/01/13 06:07:03;;;;;;;40.90;32.77;;;-0.30;99.90;;;0.41;89.55;100188.41;5183392;28;20300;-65
2022/01/13 06:09:36;;;;;;;35.67;30.30;;;-0.30;99.90;;;0.50;89.37;100190.31;5172794;28;20227;-65
2022/01/13 06:12:10;;;;;;;31.53;27.90;;;-0.30;99.90;;;0.45;89.61;100199.75;5172509;28;20690;-65
2022/01/13 06:14:43;;;;;;;31.53;26.63;;;-0.30;99.90;;;0.47;90.02;100197.47;5176530;28;20230;-66
2022/01/13 06:17:17;;;;;;;30.80;26.23;;;-0.30;99.90;;;0.49;89.84;100202.00;5174715;28;20605;-64
2022/01/13 06:19:50;;;;;;;32.57;28.13;;;-0.30;99.90;;;0.52;90.24;100193.97;5179957;28;20552;-65
2022/01/13 06:22:24;;;;;;;32.23;27.17;;;-0.20;99.90;;;0.53;89.89;100189.13;5182447;28;20226;-65
2022/01/13 06:24:57;;;;;;;34.27;27.50;;;-0.20;99.90;;;0.57;89.41;100192.94;5168169;28;20594;-65
2022/01/13 06:27:30;;;;;;;32.37;27.17;;;-0.20;99.90;;;0.56;89.22;100188.63;5179240;28;20240;-65
2022/01/13 06:30:05;;;;;;;35.00;28.87;;;-0.20;99.90;;;0.50;90.27;100190.31;5178836;28;20232;-66
2022/01/13 06:32:39;;;;;;;33.37;26.93;;;-0.20;99.90;;;0.56;89.76;100183.59;5180284;28;20591;-65
2022/01/13 06:35:12;;;;;;;30.77;26.37;;;-0.20;99.90;;;0.52;89.59;100181.38;5181916;28;20225;-65
2022/01/13 06:37:45;;;;;;;34.30;27.77;;;-0.20;99.90;;;0.48;89.50;100184.19;5171035;28;20619;-65
2022/01/13 06:40:18;;;;;;;33.80;27.67;;;-0.20;99.90;;;0.53;89.78;100178.16;5166559;28;20257;-65
2022/01/13 06:42:52;;;;;;;33.63;26.40;;;-0.20;99.90;;;0.51;89.86;100177.03;5179115;28;20226;-65
2022/01/13 06:45:25;;;;;;;32.33;26.87;;;-0.20;99.90;;;0.49;89.22;100185.97;5175451;28;20321;-65
2022/01/13 06:47:59;;;;;;;31.47;24.97;;;-0.20;99.90;;;0.52;88.99;100184.81;5182135;28;20833;-65
2022/01/13 06:50:32;;;;;;;32.23;28.20;;;-0.20;99.90;;;0.47;88.94;100190.81;5172426;28;20255;-65
2022/01/13 06:53:06;;;;;;;30.83;26.37;;;-0.30;99.90;;;0.50;89.03;100192.84;5181677;28;20223;-65
2022/01/13 06:55:39;;;;;;;33.90;29.27;;;-0.20;99.90;;;0.53;89.22;100200.81;5180041;28;20221;-65
2022/01/13 06:58:12;;;;;;;33.77;29.33;;;-0.20;99.90;;;0.56;89.18;100193.66;5176837;28;20234;-65
2022/01/13 07:00:45;;;;;;;37.83;29.93;;;-0.20;99.90;;;0.63;89.33;100206.34;5180704;28;20223;-65
2022/01/13 07:03:21;;;;;;;33.70;28.17;;;-0.10;99.90;;;0.64;89.55;100204.03;5181885;28;20218;-65
2022/01/13 07:05:54;;;;;;;30.80;27.43;;;-0.10;99.90;;;0.66;88.84;100212.72;5174796;28;20234;-64
2022/01/13 07:08:27;;;;;;;32.47;28.23;;;-0.10;99.90;;;0.63;89.06;100221.44;5167125;28;20257;-65
2022/01/13 07:11:03;;;;;;;30.83;26.60;;;-0.20;99.90;;;0.58;88.81;100228.38;5172413;28;20218;-65
2022/01/13 07:13:36;;;;;;;33.80;28.23;;;-0.20;99.90;;;0.59;89.00;100235.22;5172940;28;20228;-65
2022/01/13 07:16:09;;;;;;;34.17;27.70;;;-0.10;99.90;;;0.63;89.32;100221.44;5181837;28;20229;-65
2022/01/13 07:18:44;;;;;;;32.83;27.87;;;-0.10;99.90;;;0.67;89.54;100239.69;5177034;28;20222;-64
2022/01/13 07:21:26;;;;;;;33.37;26.63;;;0.00;99.90;;;0.60;88.60;100251.22;5186191;28;20725;-65
2022/01/13 07:23:59;;;;;;;30.80;25.40;;;-0.10;99.90;;;0.65;89.12;100247.72;5178160;28;20225;-66
2022/01/13 07:26:32;;;;;;;31.50;24.97;;;-0.10;99.90;;;0.71;89.00;100246.00;5183117;28;20310;-66
2022/01/13 07:29:07;;;;;;;28.20;24.43;;;0.00;99.90;;;0.73;88.65;100253.78;5174035;28;20235;-67
2022/01/13 07:31:40;;;;;;;26.30;22.57;;;0.00;99.90;;;0.75;88.75;100253.28;5177635;28;20259;-66
2022/01/13 07:34:14;;;;;;;30.03;23.83;;;0.00;99.90;;;0.76;88.44;100255.09;5178822;28;20321;-66
2022/01/13 07:36:47;;;;;;;27.30;21.57;;;0.00;99.90;;;0.77;88.81;100256.00;5177159;28;20310;-66
2022/01/13 07:39:20;;;;;;;23.17;20.47;;;0.00;99.90;;;0.79;88.91;100259.63;5173482;28;20225;-66
2022/01/13 07:41:53;;;;;;;25.67;21.27;;;0.00;99.90;;;0.78;88.73;100258.72;5167500;28;20719;-65
2022/01/13 07:44:26;;;;;;;29.03;24.47;;;0.00;99.90;;;0.76;89.49;100252.56;5174173;28;20267;-66
2022/01/13 07:47:00;;;;;;;33.60;27.70;;;0.00;99.90;;;0.77;89.16;100253.47;5182417;28;20239;-66
2022/01/13 07:49:35;;;;;;;40.77;32.87;;;0.10;99.90;;;0.82;90.06;100250.88;5177639;28;20226;-66
2022/01/13 07:52:08;;;;;;;36.37;29.30;;;0.10;99.90;;;0.85;89.36;100256.31;5186661;28;20313;-65
2022/01/13 07:54:41;;;;;;;32.90;27.53;;;0.10;99.90;;;0.83;88.27;100262.78;5185723;28;20223;-63
2022/01/13 07:57:14;;;;;;;34.97;27.17;;;0.00;99.90;;;0.86;88.20;100253.13;5181076;28;20234;-63
2022/01/13 07:59:47;;;;;;;33.47;27.90;;;0.00;99.90;;;0.88;88.26;100251.69;5178959;28;20223;-63
2022/01/13 08:02:21;;;;;;;31.53;27.33;;;0.10;99.90;;;0.89;88.05;100258.56;5173383;28;20644;-65
2022/01/13 08:04:55;;;;;;;32.27;27.27;;;0.10;99.90;;;0.83;87.91;100257.75;5184059;28;20229;-63
2022/01/13 08:07:28;;;;;;;31.33;26.97;;;0.20;99.90;;;0.92;88.31;100267.19;5184878;28;20226;-63
2022/01/13 08:10:01;;;;;;;32.27;27.17;;;0.10;99.90;;;0.93;88.60;100258.97;5186919;28;20233;-64
2022/01/13 08:12:34;;;;;;;31.67;26.30;;;0.20;99.90;;;0.96;87.98;100259.34;5184749;28;20238;-63
2022/01/13 08:15:13;;;;;;;30.97;25.50;;;0.30;99.90;;;1.00;87.45;100272.56;5183587;28;20243;-65
2022/01/13 08:20:40;;;;;;;31.47;25.27;;;0.30;99.90;;;0.97;86.31;100263.69;5182853;28;20578;-63
2022/01/13 08:23:13;;;;;;;28.77;24.57;;;0.30;99.90;;;1.06;86.50;100272.44;5177644;28;20604;-62
2022/01/13 08:25:46;;;;;;;29.87;24.20;;;0.30;99.90;;;1.07;86.78;100269.25;5178141;28;20224;-64
2022/01/13 08:28:20;;;;;;;30.53;25.20;;;0.30;99.90;;;1.11;86.99;100277.38;5183434;28;20695;-63
2022/01/13 08:30:53;;;;;;;27.67;23.50;;;0.40;99.90;;;1.11;86.34;100277.38;5167193;28;20235;-66
2022/01/13 08:33:27;;;;;;;27.07;23.73;;;0.40;99.90;;;1.09;86.36;100277.91;5182747;28;20229;-65
2022/01/13 08:36:01;;;;;;;30.27;25.13;;;0.40;99.90;;;1.21;86.42;100268.56;5178959;28;20219;-63
2022/01/13 08:38:35;;;;;;;30.47;25.00;;;0.40;99.90;;;1.22;86.50;100268.75;5185204;28;20239;-63
2022/01/13 08:41:08;;;;;;;27.20;23.60;;;0.40;99.90;;;1.24;86.49;100264.81;5184666;28;20223;-62
2022/01/13 08:43:41;;;;;;;28.57;24.03;;;0.40;99.90;;;1.26;86.61;100263.44;5185193;28;20232;-68
2022/01/13 08:46:14;;;;;;;26.63;23.47;;;0.50;99.90;;;1.33;86.37;100271.06;5180180;28;20253;-64
2022/01/13 08:48:48;;;;;;;31.97;25.27;;;0.50;99.90;;;1.33;86.04;100255.94;5181412;28;20703;-67
2022/01/13 08:51:22;;;;;;;35.33;28.20;;;0.50;99.90;;;1.33;86.52;100258.47;5172412;28;20715;-63
2022/01/13 08:53:55;;;;;;;35.70;26.77;;;0.60;99.90;;;1.37;86.87;100252.22;5184932;28;20221;-64
2022/01/13 08:56:28;;;;;;;29.60;25.83;;;0.60;99.90;;;1.41;86.26;100251.94;5174957;28;20225;-64
2022/01/13 08:59:02;;;;;;;30.90;24.60;;;0.60;99.90;;;1.49;86.56;100255.47;5185035;28;20245;-62
2022/01/13 09:01:35;;;;;;;29.60;24.37;;;0.70;99.90;;;1.51;85.80;100248.97;5184284;28;20220;-63
2022/01/13 09:04:08;;;;;;;29.40;24.70;;;0.70;99.90;;;1.55;87.13;100247.06;5177018;28;20254;-63
2022/01/13 09:06:42;;;;;;;30.33;24.37;;;0.80;99.90;;;1.57;86.55;100242.22;5176876;28;20228;-63
2022/01/13 09:09:16;;;;;;;26.77;23.47;;;0.90;99.90;;;1.63;85.86;100244.63;5169959;28;20689;-63
2022/01/13 09:11:49;;;;;;;28.53;23.20;;;0.80;99.90;;;1.72;86.34;100238.28;5176587;28;20568;-64
2022/01/13 09:14:26;;;;;;;25.97;22.93;;;0.90;99.90;;;1.73;85.63;100240.09;5174678;28;20227;-64
2022/01/13 09:17:00;;;;;;;25.57;22.07;;;0.90;99.90;;;1.73;85.59;100246.03;5176107;28;20682;-63
2022/01/13 09:19:33;;;;;;;24.20;21.00;;;0.90;99.90;;;1.75;85.90;100247.16;5179673;28;20669;-64
2022/01/13 09:22:08;;;;;;;25.20;21.07;;;1.00;99.90;;;1.77;86.40;100243.22;5170097;28;20706;-65
2022/01/13 09:24:41;;;;;;;27.13;22.27;;;1.00;99.90;;;1.85;85.52;100238.25;5178131;28;20225;-65
2022/01/13 09:27:14;;;;;;;24.37;20.83;;;1.10;99.90;;;1.88;85.56;100241.16;5176756;28;20218;-63
2022/01/13 09:29:47;;;;;;;23.30;19.60;;;1.20;99.90;;;1.92;84.65;100234.19;5184559;28;20232;-64
2022/01/13 09:32:22;;;;;;;19.57;16.30;;;1.20;99.90;;;1.95;85.51;100237.13;5175424;28;20228;-65
2022/01/13 09:34:55;;;;;;;18.23;15.60;;;1.20;99.90;;;2.07;85.25;100236.88;5181316;28;20577;-65
2022/01/13 09:37:29;;;;;;;18.10;16.13;;;1.30;99.90;;;2.03;85.45;100238.06;5184008;28;20227;-62
2022/01/13 09:40:05;;;;;;;18.57;15.93;;;1.20;99.90;;;2.09;85.30;100238.91;5183890;28;20226;-61
2022/01/13 09:42:42;;;;;;;16.20;14.43;;;1.30;99.90;;;2.46;83.94;100234.41;5181020;28;20250;-62
2022/01/13 09:45:17;;;;;;;17.03;15.17;;;1.50;99.90;;;2.33;83.97;100237.69;5176555;28;20314;-65
2022/01/13 09:47:51;;;;;;;13.43;12.03;;;1.50;99.90;;;2.28;83.35;100233.66;5180340;28;20228;-63
2022/01/13 09:50:30;;;;;;;14.50;13.00;;;1.40;99.90;;;2.18;84.53;100235.03;5184161;28;20268;-63
2022/01/13 09:53:04;;;;;;;14.67;13.17;;;1.40;99.90;;;2.12;83.75;100234.25;5184528;28;20222;-65
2022/01/13 09:55:37;;;;;;;16.50;14.03;;;1.30;99.90;;;2.07;85.22;100230.22;5176209;28;20590;-61
2022/01/13 09:58:11;;;;;;;14.40;12.90;;;1.30;99.90;;;2.12;84.62;100230.78;5184198;28;20230;-63
2022/01/13 10:00:46;;;;;;;14.27;12.77;;;1.30;99.90;;;2.15;83.63;100237.16;5164925;28;20573;-64
2022/01/13 10:03:26;;;;;;;14.70;13.03;;;1.40;99.90;;;2.15;84.38;100238.78;5182218;28;20232;-63
2022/01/13 10:06:01;;;;;;;15.03;13.57;;;1.40;99.90;;;2.25;84.73;100229.13;5174603;28;20224;-66
2022/01/13 10:08:46;;;;;;;15.70;14.00;;;1.40;99.90;;;2.27;84.73;100224.28;5179441;28;20307;-62
2022/01/13 10:11:33;;;;;;;15.37;13.77;;;1.40;99.90;;;2.32;84.67;100225.75;5176559;28;20225;-66
2022/01/13 10:14:16;;;;;;;15.27;13.43;;;1.50;99.90;;;2.33;85.36;100215.88;5174077;28;20219;-62
2022/01/13 10:16:50;;;;;;;15.23;12.87;;;1.50;99.90;;;2.19;83.55;100230.88;5180215;28;20638;-63
2022/01/13 10:19:33;;;;;;;15.00;13.50;;;1.50;99.90;;;2.27;83.30;100224.28;5174765;28;20590;-63
2022/01/13 10:22:09;;;;;;;15.50;13.90;;;1.40;99.90;;;2.25;84.14;100217.41;5184109;28;20590;-63
2022/01/13 10:24:47;;;;;;;16.40;14.80;;;1.50;99.90;;;2.26;85.26;100225.88;5182960;28;20222;-63
2022/01/13 10:27:24;;;;;;;15.20;13.60;;;1.50;99.90;;;2.32;83.08;100229.22;5181851;28;20666;-63
2022/01/13 10:29:59;;;;;;;15.70;14.20;;;1.30;99.90;;;2.39;83.44;100226.75;5183266;28;20218;-61
2022/01/13 10:32:37;;;;;;;13.70;12.40;;;1.50;99.90;;;2.35;83.05;100221.13;5177400;28;20304;-63
2022/01/13 10:35:14;;;;;;;15.43;13.93;;;1.50;99.90;;;2.33;84.60;100220.91;5180835;28;20240;-62
2022/01/13 10:37:50;;;;;;;15.27;13.53;;;1.60;99.90;;;2.57;82.99;100227.25;5173839;28;20234;-63
2022/01/13 10:40:31;;;;;;;15.17;13.67;;;1.80;99.90;;;2.45;84.05;100222.47;5178621;28;20602;-62
2022/01/13 10:43:10;;;;;;;16.23;13.73;;;1.70;99.90;;;2.42;83.45;100221.19;5176330;28;20221;-62
2022/01/13 10:45:49;;;;;;;16.47;14.77;;;1.70;99.90;;;2.37;83.56;100219.69;5178506;28;20224;-64